createdAt,value
2023-06-16T00:02:14.684Z,92854.16
2023-06-16T00:04:57.731Z,92848.00
2023-06-16T00:07:41.403Z,92847.00
2023-06-16T00:10:24.283Z,92851.22
2023-06-16T00:13:08.530Z,92852.19
2023-06-16T00:15:51.498Z,92853.00
2023-06-16T00:18:34.453Z,92853.00
2023-06-16T00:21:21.044Z,92848.97
2023-06-16T00:24:04.478Z,92852.38
2023-06-16T00:26:47.450Z,92842.19
2023-06-16T00:29:31.727Z,92845.59
2023-06-16T00:32:14.650Z,92840.41
2023-06-16T00:34:57.627Z,92844.41
2023-06-16T00:37:40.623Z,92844.41
2023-06-16T00:40:23.599Z,92834.88
2023-06-16T00:43:06.763Z,92834.31
2023-06-16T00:45:51.814Z,92831.53
2023-06-16T00:48:34.823Z,92829.13
2023-06-16T00:51:18.095Z,92829.31
2023-06-16T00:54:02.199Z,92836.03
2023-06-16T00:56:46.279Z,92836.41
2023-06-16T00:59:29.509Z,92832.56
2023-06-16T01:02:14.740Z,92827.28
2023-06-16T01:04:57.736Z,92829.25
2023-06-16T01:07:44.681Z,92830.66
2023-06-16T01:10:35.029Z,92829.97
2023-06-16T01:13:26.845Z,92825.22
2023-06-16T01:16:13.023Z,92828.25
2023-06-16T01:18:57.609Z,92823.44
2023-06-16T01:21:50.037Z,92828.63
2023-06-16T01:24:36.816Z,92826.22
2023-06-16T01:27:22.678Z,92820.88
2023-06-16T01:30:07.863Z,92815.84
2023-06-16T01:32:59.406Z,92823.00
2023-06-16T01:35:46.295Z,92821.22
2023-06-16T01:38:30.416Z,92823.00
2023-06-16T01:41:15.102Z,92823.16
2023-06-16T01:43:58.352Z,92822.72
2023-06-16T01:46:42.907Z,92821.28
2023-06-16T01:49:28.107Z,92812.44
2023-06-16T01:52:13.200Z,92817.00
2023-06-16T01:54:56.324Z,92806.84
2023-06-16T01:57:40.727Z,92816.56
2023-06-16T02:00:25.991Z,92813.16
2023-06-16T02:03:16.738Z,92813.16
2023-06-16T02:06:02.210Z,92815.31
2023-06-16T02:08:47.581Z,92810.50
2023-06-16T02:11:32.093Z,92805.72
2023-06-16T02:14:19.310Z,92805.88
2023-06-16T02:17:06.703Z,92802.50
2023-06-16T02:19:50.061Z,92804.25
2023-06-16T02:22:34.021Z,92798.66
2023-06-16T02:25:17.070Z,92800.41
2023-06-16T02:28:00.025Z,92804.19
2023-06-16T02:30:44.333Z,92802.13
2023-06-16T02:33:28.034Z,92800.72
2023-06-16T02:36:11.049Z,92806.06
2023-06-16T02:38:53.979Z,92816.78
2023-06-16T02:41:37.415Z,92804.03
2023-06-16T02:44:20.508Z,92811.34
2023-06-16T02:47:05.150Z,92810.53
2023-06-16T02:49:49.924Z,92814.28
2023-06-16T02:52:34.027Z,92809.66
2023-06-16T02:55:17.587Z,92805.47
2023-06-16T02:58:06.697Z,92804.38
2023-06-16T03:00:50.508Z,92808.13
2023-06-16T03:03:39.095Z,92811.06
2023-06-16T03:06:46.182Z,92810.28
2023-06-16T03:09:40.421Z,92814.47
2023-06-16T03:12:25.569Z,92809.44
2023-06-16T03:15:15.218Z,92811.44
2023-06-16T03:18:00.052Z,92805.00
2023-06-16T03:20:48.448Z,92817.94
2023-06-16T03:23:37.418Z,92815.50
2023-06-16T03:26:20.497Z,92813.31
2023-06-16T03:29:26.800Z,92810.09
2023-06-16T03:32:10.201Z,92814.44
2023-06-16T03:34:54.332Z,92812.84
2023-06-16T03:37:39.408Z,92813.19
2023-06-16T03:40:22.993Z,92821.94
2023-06-16T03:43:09.044Z,92824.53
2023-06-16T03:45:54.599Z,92824.34
2023-06-16T03:48:38.840Z,92825.97
2023-06-16T03:51:25.268Z,92823.19
2023-06-16T03:54:09.681Z,92821.66
2023-06-16T03:56:52.891Z,92828.09
2023-06-16T03:59:37.588Z,92826.78
2023-06-16T04:02:21.600Z,92833.22
2023-06-16T04:05:04.777Z,92831.84
2023-06-16T04:07:48.200Z,92828.91
2023-06-16T04:10:32.614Z,92832.97
2023-06-16T04:13:15.660Z,92832.56
2023-06-16T04:16:01.558Z,92835.00
2023-06-16T04:18:49.160Z,92840.63
2023-06-16T04:21:33.510Z,92842.03
2023-06-16T04:24:17.884Z,92840.91
2023-06-16T04:27:03.312Z,92834.09
2023-06-16T04:29:50.254Z,92839.09
2023-06-16T04:32:36.282Z,92839.91
2023-06-16T04:35:22.659Z,92843.91
2023-06-16T04:38:05.972Z,92845.53
2023-06-16T04:40:50.850Z,92839.38
2023-06-16T04:43:36.104Z,92838.56
2023-06-16T04:46:19.828Z,92841.78
2023-06-16T04:49:03.057Z,92832.22
2023-06-16T04:51:47.384Z,92843.03
2023-06-16T04:54:30.675Z,92835.06
2023-06-16T04:57:14.380Z,92841.69
2023-06-16T04:59:58.872Z,92842.31
2023-06-16T05:02:42.668Z,92832.59
2023-06-16T05:05:26.926Z,92835.78
2023-06-16T05:08:10.478Z,92832.03
2023-06-16T05:10:53.476Z,92838.47
2023-06-16T05:13:36.611Z,92841.66
2023-06-16T05:16:21.189Z,92833.38
2023-06-16T05:19:04.321Z,92832.19
2023-06-16T05:21:50.896Z,92843.00
2023-06-16T05:24:34.055Z,92837.03
2023-06-16T05:27:19.039Z,92833.25
2023-06-16T05:30:03.207Z,92838.09
2023-06-16T05:32:48.862Z,92834.34
2023-06-16T05:35:31.939Z,92836.56
2023-06-16T05:38:15.004Z,92832.00
2023-06-16T05:40:58.056Z,92839.44
2023-06-16T05:43:41.310Z,92841.84
2023-06-16T05:46:24.386Z,92833.88
2023-06-16T05:49:09.777Z,92833.69
2023-06-16T05:51:53.529Z,92833.34
2023-06-16T05:54:37.777Z,92835.56
2023-06-16T05:57:23.851Z,92841.19
2023-06-16T06:00:09.849Z,92832.84
2023-06-16T06:03:05.951Z,92836.69
2023-06-16T06:05:54.692Z,92841.31
2023-06-16T06:08:38.829Z,92847.53
2023-06-16T06:11:22.455Z,92839.22
2023-06-16T06:14:05.525Z,92840.47
2023-06-16T06:16:50.373Z,92850.09
2023-06-16T06:19:36.574Z,92849.53
2023-06-16T06:22:21.984Z,92848.00
2023-06-16T06:25:05.656Z,92850.63
2023-06-16T06:27:48.700Z,92851.31
2023-06-16T06:30:31.782Z,92857.53
2023-06-16T06:33:14.739Z,92849.22
2023-06-16T06:35:57.817Z,92851.06
2023-06-16T06:38:42.175Z,92853.91
2023-06-16T06:41:26.932Z,92852.34
2023-06-16T06:44:18.632Z,92850.44
2023-06-16T06:47:06.187Z,92859.88
2023-06-16T06:49:50.313Z,92859.31
2023-06-16T06:52:33.213Z,92864.38
2023-06-16T06:55:18.020Z,92847.22
2023-06-16T06:58:01.576Z,92853.25
2023-06-16T07:00:44.477Z,92857.09
2023-06-16T07:03:28.657Z,92859.56
2023-06-16T07:06:11.881Z,92858.63
2023-06-16T07:08:55.733Z,92864.88
2023-06-16T07:11:40.886Z,92860.91
2023-06-16T07:14:24.491Z,92865.56
2023-06-16T07:17:07.590Z,92865.03
2023-06-16T07:19:51.438Z,92875.88
2023-06-16T07:22:34.821Z,92875.47
2023-06-16T07:25:18.420Z,92876.09
2023-06-16T07:28:02.777Z,92871.69
2023-06-16T07:30:45.765Z,92876.28
2023-06-16T07:33:28.759Z,92875.47
2023-06-16T07:36:11.760Z,92873.50
2023-06-16T07:38:54.645Z,92873.50
2023-06-16T07:41:37.640Z,92873.13
2023-06-16T07:44:21.984Z,92871.34
2023-06-16T07:47:05.096Z,92865.75
2023-06-16T07:49:48.137Z,92856.34
2023-06-16T07:52:31.181Z,92859.94
2023-06-16T07:55:14.188Z,92854.34
2023-06-16T07:57:57.343Z,92850.91
2023-06-16T08:00:41.671Z,92854.06
2023-06-16T08:03:24.912Z,92852.59
2023-06-16T08:06:08.135Z,92857.13
2023-06-16T08:08:51.461Z,92857.50
2023-06-16T08:11:34.831Z,92865.94
2023-06-16T08:14:18.026Z,92863.47
2023-06-16T08:17:02.350Z,92863.06
2023-06-16T08:19:45.241Z,92857.81
2023-06-16T08:22:28.212Z,92860.19
2023-06-16T08:25:11.299Z,92859.78
2023-06-16T08:27:54.303Z,92856.53
2023-06-16T08:30:37.578Z,92856.91
2023-06-16T08:33:22.138Z,92856.91
2023-06-16T08:36:05.997Z,92852.91
2023-06-16T08:38:49.308Z,92853.75
2023-06-16T08:41:34.096Z,92854.75
2023-06-16T08:44:20.987Z,92858.38
2023-06-16T08:47:06.112Z,92856.97
2023-06-16T08:49:53.473Z,92850.16
2023-06-16T08:52:44.578Z,92859.00
2023-06-16T08:55:30.853Z,92863.44
2023-06-16T08:58:17.196Z,92863.63
2023-06-16T09:01:01.704Z,92853.59
2023-06-16T09:03:48.878Z,92859.03
2023-06-16T09:06:34.660Z,92856.66
2023-06-16T09:09:18.748Z,92856.22
2023-06-16T09:12:06.898Z,92859.41
2023-06-16T09:14:51.878Z,92856.16
2023-06-16T09:17:35.917Z,92854.34
2023-06-16T09:20:20.609Z,92852.78
2023-06-16T09:23:05.584Z,92842.25
2023-06-16T09:25:53.837Z,92845.00
2023-06-16T09:28:38.353Z,92831.19
2023-06-16T09:31:28.362Z,92834.22
2023-06-16T09:34:11.864Z,92831.69
2023-06-16T09:36:54.878Z,92830.91
2023-06-16T09:39:40.509Z,92826.19
2023-06-16T09:42:23.495Z,92832.19
2023-06-16T09:45:10.835Z,92820.22
2023-06-16T09:47:53.793Z,92822.91
2023-06-16T09:50:38.027Z,92820.66
2023-06-16T09:53:24.759Z,92828.31
2023-06-16T09:56:10.135Z,92832.63
2023-06-16T09:58:53.361Z,92831.72
2023-06-16T10:01:36.906Z,92831.13
2023-06-16T10:04:20.767Z,92825.59
2023-06-16T10:07:08.840Z,92822.78
2023-06-16T10:12:45.137Z,92823.66
2023-06-16T10:15:30.153Z,92826.03
2023-06-16T10:18:19.080Z,92827.50
2023-06-16T10:21:03.497Z,92828.16
2023-06-16T10:23:47.113Z,92831.50
2023-06-16T10:26:31.908Z,92825.97
2023-06-16T10:29:17.724Z,92840.72
2023-06-16T10:32:08.900Z,92841.59
2023-06-16T10:34:58.155Z,92849.19
2023-06-16T10:37:41.678Z,92850.25
2023-06-16T10:40:29.269Z,92844.63
2023-06-16T10:43:25.762Z,92852.00
2023-06-16T10:46:17.307Z,92850.91
2023-06-16T10:49:16.911Z,92840.69
2023-06-16T10:52:03.456Z,92839.50
2023-06-16T10:54:49.657Z,92836.09
2023-06-16T10:57:37.828Z,92844.50
2023-06-16T11:00:21.628Z,92846.03
2023-06-16T11:03:06.989Z,92844.97
2023-06-16T11:06:00.897Z,92847.34
2023-06-16T11:08:51.995Z,92845.41
2023-06-16T11:11:35.822Z,92836.50
2023-06-16T11:14:19.629Z,92837.09
2023-06-16T11:17:04.949Z,92832.56
2023-06-16T11:19:55.144Z,92828.25
2023-06-16T11:22:38.944Z,92827.72
2023-06-16T11:25:21.903Z,92825.78
2023-06-16T11:28:07.070Z,92826.34
2023-06-16T11:30:50.914Z,92838.22
2023-06-16T11:33:35.213Z,92827.50
2023-06-16T11:36:21.900Z,92828.59
2023-06-16T11:39:12.807Z,92839.13
2023-06-16T11:42:01.668Z,92830.88
2023-06-16T11:44:45.667Z,92824.19
2023-06-16T11:47:28.648Z,92823.78
2023-06-16T11:50:13.302Z,92829.31
2023-06-16T11:52:57.903Z,92824.44
2023-06-16T11:55:41.668Z,92820.88
2023-06-16T11:58:28.054Z,92822.13
2023-06-16T12:01:16.061Z,92827.41
2023-06-16T12:04:06.676Z,92824.94
2023-06-16T12:06:50.349Z,92815.97
2023-06-16T12:09:41.083Z,92823.25
2023-06-16T12:12:26.486Z,92822.44
2023-06-16T12:15:10.676Z,92824.63
2023-06-16T12:17:56.906Z,92813.47
2023-06-16T12:20:41.896Z,92817.31
2023-06-16T12:23:25.036Z,92818.22
2023-06-16T12:26:09.468Z,92810.25
2023-06-16T12:28:54.660Z,92816.38
2023-06-16T12:31:38.057Z,92804.19
2023-06-16T12:34:25.568Z,92808.38
2023-06-16T12:37:12.444Z,92794.91
2023-06-16T12:39:59.344Z,92789.00
2023-06-16T12:42:43.740Z,92789.31
2023-06-16T12:45:27.954Z,92779.56
2023-06-16T12:48:11.046Z,92781.72
2023-06-16T12:50:54.109Z,92775.00
2023-06-16T12:53:44.289Z,92769.78
2023-06-16T12:56:27.999Z,92783.28
2023-06-16T12:59:12.243Z,92786.41
2023-06-16T13:01:55.424Z,92776.19
2023-06-16T13:04:38.682Z,92771.22
2023-06-16T13:07:22.009Z,92766.03
2023-06-16T13:10:05.559Z,92770.84
2023-06-16T13:12:48.668Z,92770.63
2023-06-16T13:15:33.041Z,92763.72
2023-06-16T13:18:16.099Z,92769.34
2023-06-16T13:21:00.405Z,92761.78
2023-06-16T13:23:45.217Z,92766.88
2023-06-16T13:26:28.796Z,92765.94
2023-06-16T13:29:11.869Z,92774.06
2023-06-16T13:31:56.231Z,92783.13
2023-06-16T13:34:39.194Z,92789.25
2023-06-16T13:37:22.482Z,92795.69
2023-06-16T13:40:06.274Z,92803.06
2023-06-16T13:42:49.443Z,92816.53
2023-06-16T13:45:32.456Z,92839.56
2023-06-16T13:48:17.825Z,92844.22
2023-06-16T13:51:01.004Z,92848.88
2023-06-16T13:53:45.312Z,92850.56
2023-06-16T13:56:28.687Z,92864.09
2023-06-16T13:59:11.625Z,92864.81
2023-06-16T14:01:54.524Z,92864.00
2023-06-16T14:04:39.126Z,92852.63
2023-06-16T14:07:22.320Z,92860.78
2023-06-16T14:10:06.388Z,92863.25
2023-06-16T14:12:49.429Z,92858.59
2023-06-16T14:15:33.907Z,92838.19
2023-06-16T14:18:16.995Z,92814.69
2023-06-16T14:21:02.099Z,92812.78
2023-06-16T14:23:46.055Z,92812.72
2023-06-16T14:26:29.400Z,92814.16
2023-06-16T14:29:12.393Z,92824.44
2023-06-16T14:31:55.383Z,92820.47
2023-06-16T14:34:38.357Z,92823.47
2023-06-16T14:37:22.672Z,92821.69
2023-06-16T14:40:06.763Z,92815.50
2023-06-16T14:42:49.726Z,92812.88
2023-06-16T14:45:32.928Z,92822.88
2023-06-16T14:48:16.132Z,92804.28
2023-06-16T14:50:59.323Z,92810.09
2023-06-16T14:53:43.641Z,92813.06
2023-06-16T14:56:27.475Z,92804.84
2023-06-16T14:59:10.597Z,92801.44
2023-06-16T15:01:53.801Z,92803.25
2023-06-16T15:04:36.752Z,92808.69
2023-06-16T15:07:19.759Z,92799.47
2023-06-16T15:10:04.192Z,92794.84
2023-06-16T15:12:47.424Z,92803.47
2023-06-16T15:15:30.409Z,92794.03
2023-06-16T15:18:14.117Z,92798.44
2023-06-16T15:20:57.913Z,92790.63
2023-06-16T15:23:42.280Z,92791.47
2023-06-16T15:26:26.790Z,92790.88
2023-06-16T15:29:09.757Z,92791.06
2023-06-16T15:31:53.804Z,92792.28
2023-06-16T15:34:36.808Z,92789.47
2023-06-16T15:37:19.806Z,92787.06
2023-06-16T15:40:03.082Z,92796.69
2023-06-16T15:42:48.651Z,92796.88
2023-06-16T15:45:31.614Z,92788.25
2023-06-16T15:48:14.657Z,92784.03
2023-06-16T15:50:57.577Z,92787.44
2023-06-16T15:53:41.247Z,92781.22
2023-06-16T15:56:25.375Z,92773.63
2023-06-16T15:59:10.029Z,92775.41
2023-06-16T16:01:53.634Z,92781.03
2023-06-16T16:04:36.794Z,92786.44
2023-06-16T16:07:19.814Z,92782.44
2023-06-16T16:10:02.924Z,92786.22
2023-06-16T16:12:46.160Z,92787.84
2023-06-16T16:15:30.549Z,92780.22
2023-06-16T16:18:15.625Z,92779.44
2023-06-16T16:20:59.597Z,92786.44
2023-06-16T16:23:43.708Z,92789.06
2023-06-16T16:26:26.927Z,92791.47
2023-06-16T16:29:11.138Z,92799.06
2023-06-16T16:31:55.626Z,92808.28
2023-06-16T16:34:38.648Z,92814.69
2023-06-16T16:37:21.837Z,92823.09
2023-06-16T16:40:06.706Z,92820.28
2023-06-16T16:42:49.745Z,92814.06
2023-06-16T16:45:32.675Z,92809.06
2023-06-16T16:48:17.233Z,92810.59
2023-06-16T16:51:00.240Z,92805.75
2023-06-16T16:53:43.176Z,92801.94
2023-06-16T16:56:26.506Z,92810.09
2023-06-16T16:59:09.699Z,92805.03
2023-06-16T17:01:52.873Z,92807.84
2023-06-16T17:04:38.131Z,92809.25
2023-06-16T17:07:21.216Z,92808.03
2023-06-16T17:10:05.115Z,92819.19
2023-06-16T17:12:48.362Z,92818.88
2023-06-16T17:15:31.849Z,92819.84
2023-06-16T17:18:14.758Z,92814.81
2023-06-16T17:20:59.161Z,92816.22
2023-06-16T17:23:44.399Z,92819.97
2023-06-16T17:26:28.116Z,92817.78
2023-06-16T17:29:11.181Z,92819.22
2023-06-16T17:31:54.126Z,92821.25
2023-06-16T17:34:37.078Z,92819.06
2023-06-16T17:37:21.436Z,92823.25
2023-06-16T17:40:05.578Z,92819.50
2023-06-16T17:42:49.131Z,92824.50
2023-06-16T17:45:33.735Z,92825.69
2023-06-16T17:48:18.136Z,92818.66
2023-06-16T17:51:01.233Z,92824.41
2023-06-16T17:53:46.126Z,92825.00
2023-06-16T17:56:33.149Z,92821.97
2023-06-16T17:59:16.241Z,92817.16
2023-06-16T18:02:00.585Z,92819.16
2023-06-16T18:04:44.055Z,92814.34
2023-06-16T18:07:27.270Z,92824.31
2023-06-16T18:10:12.657Z,92830.00
2023-06-16T18:12:55.538Z,92828.59
2023-06-16T18:15:38.913Z,92827.56
2023-06-16T18:18:22.252Z,92824.72
2023-06-16T18:21:05.927Z,92826.91
2023-06-16T18:23:50.049Z,92822.72
2023-06-16T18:26:34.363Z,92823.69
2023-06-16T18:29:17.388Z,92816.09
2023-06-16T18:32:02.852Z,92820.47
2023-06-16T18:34:45.925Z,92821.47
2023-06-16T18:37:28.907Z,92815.50
2023-06-16T18:40:13.146Z,92818.25
2023-06-16T18:42:57.459Z,92824.44
2023-06-16T18:45:40.419Z,92827.22
2023-06-16T18:48:23.313Z,92822.41
2023-06-16T18:51:07.167Z,92830.56
2023-06-16T18:53:50.337Z,92840.31
2023-06-16T18:56:36.135Z,92836.31
2023-06-16T18:59:21.066Z,92840.47
2023-06-16T19:02:04.055Z,92841.03
2023-06-16T19:04:47.503Z,92840.97
2023-06-16T19:07:31.121Z,92845.91
2023-06-16T19:10:14.569Z,92842.06
2023-06-16T19:12:57.773Z,92841.44
2023-06-16T19:15:42.184Z,92853.19
2023-06-16T19:18:25.107Z,92850.75
2023-06-16T19:21:08.171Z,92858.75
2023-06-16T19:23:53.724Z,92862.69
2023-06-16T19:26:36.804Z,92852.66
2023-06-16T19:29:21.342Z,92863.41
2023-06-16T19:32:06.478Z,92862.53
2023-06-16T19:34:49.471Z,92861.47
2023-06-16T19:37:33.230Z,92863.63
2023-06-16T19:40:16.524Z,92857.22
2023-06-16T19:42:59.513Z,92860.78
2023-06-16T19:45:42.494Z,92859.97
2023-06-16T19:48:27.224Z,92860.16
2023-06-16T19:51:11.136Z,92864.53
2023-06-16T19:53:54.026Z,92867.31
2023-06-16T19:56:37.934Z,92873.47
2023-06-16T19:59:21.201Z,92866.38
2023-06-16T20:02:04.239Z,92872.13
2023-06-16T20:04:49.731Z,92871.06
2023-06-16T20:07:33.850Z,92874.34
2023-06-16T20:10:17.428Z,92877.50
2023-06-16T20:13:03.750Z,92881.25
2023-06-16T20:15:47.102Z,92887.56
2023-06-16T20:18:30.109Z,92891.78
2023-06-16T20:21:15.017Z,92896.94
2023-06-16T20:23:57.974Z,92899.09
2023-06-16T20:26:41.041Z,92892.03
2023-06-16T20:29:24.069Z,92894.91
2023-06-16T20:32:07.563Z,92891.75
2023-06-16T20:34:52.268Z,92887.56
2023-06-16T20:37:36.869Z,92894.59
2023-06-16T20:40:20.392Z,92887.88
2023-06-16T20:43:04.504Z,92882.69
2023-06-16T20:45:48.224Z,92882.88
2023-06-16T20:48:32.363Z,92884.38
2023-06-16T20:51:15.795Z,92879.56
2023-06-16T20:54:00.142Z,92883.31
2023-06-16T20:56:44.228Z,92879.91
2023-06-16T20:59:28.172Z,92881.06
2023-06-16T21:02:11.241Z,92874.91
2023-06-16T21:04:54.572Z,92875.59
2023-06-16T21:07:45.716Z,92884.34
2023-06-16T21:10:31.956Z,92884.34
2023-06-16T21:13:14.952Z,92885.94
2023-06-16T21:16:01.709Z,92887.56
2023-06-16T21:18:44.873Z,92883.81
2023-06-16T21:21:27.977Z,92882.19
2023-06-16T21:24:10.939Z,92883.00
2023-06-16T21:26:57.206Z,92880.44
2023-06-16T21:29:40.283Z,92881.41
2023-06-16T21:32:23.293Z,92878.81
2023-06-16T21:35:07.038Z,92877.03
2023-06-16T21:37:50.042Z,92878.63
2023-06-16T21:40:33.150Z,92880.44
2023-06-16T21:43:17.499Z,92880.25
2023-06-16T21:46:00.910Z,92885.25
2023-06-16T21:48:43.884Z,92880.09
2023-06-16T21:51:26.767Z,92886.06
2023-06-16T21:54:09.696Z,92883.13
2023-06-16T21:56:52.866Z,92884.72
2023-06-16T21:59:40.652Z,92891.84
2023-06-16T22:02:23.799Z,92888.00
2023-06-16T22:05:08.857Z,92896.09
2023-06-16T22:07:53.300Z,92894.53
2023-06-16T22:10:36.362Z,92885.94
2023-06-16T22:13:19.354Z,92886.91
2023-06-16T22:16:04.216Z,92884.53
2023-06-16T22:18:47.993Z,92895.84
2023-06-16T22:21:33.216Z,92893.25
2023-06-16T22:24:16.406Z,92888.25
2023-06-16T22:27:11.509Z,92892.63
2023-06-16T22:30:00.370Z,92890.03
2023-06-16T22:32:44.736Z,92890.03
2023-06-16T22:35:27.682Z,92891.81
2023-06-16T22:38:10.906Z,92892.78
2023-06-16T22:40:53.864Z,92886.63
2023-06-16T22:43:36.994Z,92876.47
2023-06-16T22:46:19.943Z,92873.69
2023-06-16T22:49:04.445Z,92872.09
2023-06-16T22:51:49.414Z,92870.66
2023-06-16T22:54:32.647Z,92879.41
2023-06-16T22:57:15.974Z,92880.38
2023-06-16T22:59:58.887Z,92874.56
2023-06-16T23:02:41.925Z,92857.59
2023-06-16T23:05:26.336Z,92853.28
2023-06-16T23:08:09.250Z,92849.69
2023-06-16T23:10:52.295Z,92846.94
2023-06-16T23:13:35.265Z,92836.25
2023-06-16T23:16:18.216Z,92843.63
2023-06-16T23:19:01.794Z,92846.69
2023-06-16T23:21:47.141Z,92855.72
2023-06-16T23:24:30.913Z,92853.94
2023-06-16T23:27:14.009Z,92853.94
2023-06-16T23:29:56.939Z,92857.31
2023-06-16T23:32:40.007Z,92848.56
2023-06-16T23:35:23.064Z,92845.00
2023-06-16T23:38:07.477Z,92847.25
2023-06-16T23:40:50.826Z,92841.91
2023-06-16T23:43:34.113Z,92837.72
2023-06-16T23:46:17.263Z,92838.50
2023-06-16T23:49:00.306Z,92831.56
2023-06-16T23:51:43.285Z,92827.38
2023-06-16T23:54:27.545Z,92823.00
2023-06-16T23:57:10.561Z,92826.56
2023-06-16T23:59:53.513Z,92829.13
